• Join FlightAware (Why Join?)
  • Login
  • US Flag 
07:20PM EDT


 

Airport Tracker/Info


-or-


 

Live Flight TrackerFlight Track Log ✈ N1926A ✈ 23-May-2013 ✈ KFTW - 41A

Flight Track Log - Related Links

Times and Time Zones

All times are in EDT time to prevent confusion due to time zone crossing. See the N1926A flight status page for this flight to view local times or setup timezone preferences in your user account.

Time Position Orientation Groundspeed Altitude Reporting Facility
EDT Latitude Longitude Course Direction KTS MPH feet Rate Location/Type
01:30PM 32.8000 -97.3500 180° South 152 175 1,200  Level Dallas / Fort Worth TRACON
01:31PM 32.7500 -97.3500 180° South 158 182 3,700 1,260 Climbing Dallas / Fort Worth TRACON
01:32PM 32.7167 -97.3167 140° Southeast 200 230 4,000 120 Climbing Dallas / Fort Worth TRACON
01:33PM 32.6667 -97.2667 140° Southeast 217 250 4,000  Level Dallas / Fort Worth TRACON
01:34PM 32.6167 -97.2167 140° Southeast 222 255 4,000  Level Dallas / Fort Worth TRACON
01:35PM 32.6167 -97.1333 88° East 230 265 4,000  Level Dallas / Fort Worth TRACON
01:36PM 32.6207 -97.1024 88° East  Level Estimated
01:36PM 32.6167 -97.0667 90° East 227 261 4,000  Level Dallas / Fort Worth TRACON
01:37PM 32.6167 -96.9833 90° East 227 261 4,000 480 Level Dallas / Fort Worth TRACON
01:39PM 32.6333 -96.8500 82° East 206 237 5,600 1,260 Climbing Dallas / Fort Worth TRACON
01:40PM 32.6500 -96.8000 68° East 165 190 7,700 1,860 Climbing Dallas / Fort Worth TRACON
01:41PM 32.6500 -96.7333 90° East 176 203 9,400 1,200 Climbing Dallas / Fort Worth TRACON
01:42PM 32.6833 -96.6833 52° Northeast 226 260 10,000 300 Climbing Dallas / Fort Worth TRACON
01:43PM 32.6419 -96.4538 88° East  Level Estimated
01:43PM 32.7167 -96.6167 59° Northeast 275 316 10,000  Level Dallas / Fort Worth TRACON
01:44PM 32.7492 -96.5611 55° Northeast 285 328 9,900 -60 Descending Fort Worth Center
01:45PM 32.7903 -96.4867 57° Northeast 288 331 9,900  Level Fort Worth Center
01:46PM 32.8294 -96.4097 59° Northeast 273 314 9,900  Level Fort Worth Center
01:47PM 32.8725 -96.3325 56° Northeast 273 314 9,900  Level Fort Worth Center
01:48PM 32.8844 -96.2483 80° East 263 303 10,000 300 Climbing Fort Worth Center
01:49PM 32.8794 -96.1617 94° East 256 295 10,500 540 Climbing Fort Worth Center
01:50PM 32.8744 -96.0778 94° East 256 295 11,100 600 Climbing Fort Worth Center
01:51PM 32.8714 -95.9961 93° East 256 295 11,800 420 Climbing Fort Worth Center
01:52PM 32.8683 -95.9097 92° East 256 295 12,000 60 Climbing Fort Worth Center
01:53PM 32.8672 -95.8231 91° East 256 295 12,000 780 Level Fort Worth Center
01:54PM 32.8725 -95.7389 86° East 262 302 13,600 1,260 Climbing Fort Worth Center
01:55PM 32.8756 -95.6622 87° East 235 270 14,600 660 Climbing Fort Worth Center
01:56PM 32.8764 -95.5856 89° East 222 255 15,000 900 Climbing Fort Worth Center
01:57PM 32.8794 -95.5086 87° East 228 262 16,500 1,440 Climbing Fort Worth Center
01:58PM 32.8783 -95.4394 91° East 223 257 17,900 1,380 Climbing Fort Worth Center
01:59PM 32.8775 -95.3703 91° East 211 243 19,300 1,200 Climbing Fort Worth Center
02:00PM 32.8783 -95.2961 89° East 216 249 20,400 1,140 Climbing Fort Worth Center
02:01PM 32.8750 -95.2219 93° East 226 260 21,600 1,080 Climbing Fort Worth Center
02:02PM 32.8756 -95.1453 89° East 232 267 22,600 1,080 Climbing Fort Worth Center
02:03PM 32.8783 -95.0658 88° East 237 273 23,800 660 Climbing Fort Worth Center
02:04PM 32.8789 -94.9794 90° East 237 273 24,000 60 Climbing Fort Worth Center
02:05PM 32.8811 -94.8853 88° East 259 298 24,000 120 Level Fort Worth Center
02:06PM 32.8811 -94.7839 90° East 280 322 24,300 600 Climbing Fort Worth Center
02:07PM 32.8811 -94.6875 90° East 287 330 25,200 960 Climbing Fort Worth Center
02:08PM 32.8792 -94.5983 91° East 282 325 26,300 780 Climbing Fort Worth Center
02:09PM 32.8772 -94.5119 92° East 270 311 26,800 300 Climbing Fort Worth Center
02:10PM 32.8728 -94.4181 93° East 270 311 27,000 60 Climbing Fort Worth Center
02:11PM 32.8706 -94.3217 92° East 283 326 27,000  Level Fort Worth Center
02:12PM 32.8700 -94.2178 90° East 295 339 27,000  Level Fort Worth Center
02:13PM 32.8717 -94.1164 89° East 300 345 27,000  Level Fort Worth Center
02:14PM 32.8706 -94.0003 91° East 314 361 27,000  Level Fort Worth Center
02:15PM 32.8719 -93.8964 89° East 314 361 27,000  Level Fort Worth Center
02:16PM 32.8731 -93.7900 89° East 319 367 27,000  Level Fort Worth Center
02:17PM 32.8722 -93.6861 91° East 319 367 27,000  Level Fort Worth Center
02:18PM 32.8689 -93.5822 92° East 314 361 27,000  Level Fort Worth Center
02:19PM 32.8658 -93.4761 92° East 314 361 27,000  Level Fort Worth Center
02:20PM 32.8667 -93.3697 89° East 314 361 27,000  Level Fort Worth Center
02:21PM 32.8653 -93.2658 91° East 309 356 27,000  Level Fort Worth Center
02:22PM 32.8619 -93.1647 92° East 309 356 27,000  Level Fort Worth Center
02:23PM 32.8603 -93.0608 91° East 309 356 27,000  Level Fort Worth Center
02:24PM 32.8611 -92.9594 89° East 309 356 27,000  Level Fort Worth Center
02:25PM 32.8575 -92.8583 92° East 309 356 27,000  Level Fort Worth Center
02:26PM 32.8556 -92.7519 91° East 309 356 27,000  Level Fort Worth Center
02:28PM 32.8469 -92.5481 93° East 309 356 27,000  Level Memphis Center
02:29PM 32.8467 -92.4442 90° East 309 356 27,000  Level Memphis Center
02:30PM 32.8464 -92.3406 90° East 309 356 27,000  Level Memphis Center
02:31PM 32.8417 -92.2364 93° East 309 356 27,000  Level Memphis Center
02:32PM 32.8347 -92.1350 95° East 309 356 27,000  Level Memphis Center
02:33PM 32.8278 -92.0333 95° East 309 356 27,000  Level Memphis Center
02:34PM 32.8250 -91.9247 92° East 315 362 27,000  Level Memphis Center
02:35PM 32.8242 -91.8233 91° East 315 362 27,000  Level Memphis Center
02:36PM 32.8211 -91.7169 92° East 309 356 27,000  Level Memphis Center
02:37PM 32.8222 -91.6156 89° East 309 356 27,000  Level Memphis Center
02:38PM 32.8211 -91.5117 91° East 309 356 27,000  Level Memphis Center
02:39PM 32.8178 -91.4103 92° East 309 356 27,000  Level Memphis Center
02:40PM 32.8125 -91.3089 94° East 309 356 27,000  Level Memphis Center
02:41PM 32.8069 -91.2025 94° East 309 356 27,000  Level Memphis Center
02:42PM 32.8033 -91.0989 92° East 314 361 27,000  Level Memphis Center
02:43PM 32.7997 -90.9950 92° East 309 356 27,000  Level Memphis Center
02:44PM 32.7961 -90.8936 92° East 309 356 27,000  Level Memphis Center
02:45PM 32.7944 -90.7897 91° East 314 361 27,000  Level Memphis Center
02:46PM 32.7883 -90.6883 94° East 309 356 27,000  Level Memphis Center
02:47PM 32.7844 -90.5722 92° East 314 361 27,000  Level Memphis Center
02:48PM 32.7825 -90.4686 91° East 314 361 27,000  Level Memphis Center
02:49PM 32.7783 -90.3672 93° East 309 356 27,000  Level Memphis Center
02:50PM 32.7742 -90.2608 93° East 309 356 27,000  Level Memphis Center
02:51PM 32.7700 -90.1597 93° East 309 356 27,000  Level Memphis Center
02:52PM 32.7656 -90.0558 93° East 309 356 27,000  Level Memphis Center
02:53PM 32.7589 -89.9522 94° East 309 356 27,000  Level Memphis Center
02:54PM 32.7564 -89.8483 92° East 309 356 27,000  Level Memphis Center
02:55PM 32.7497 -89.7447 94° East 309 356 27,000  Level Memphis Center
02:56PM 32.7472 -89.6508 92° East 309 356 27,000  Level Memphis Center
02:57PM 32.7422 -89.5472 93° East 309 356 27,000  Level Memphis Center
02:58PM 32.7394 -89.4483 92° East 309 356 27,000  Level Memphis Center
02:59PM 32.7325 -89.3422 94° East 309 356 27,000  Level Memphis Center
03:00PM 32.7294 -89.2411 92° East 309 356 27,000  Level Memphis Center
03:01PM 32.7203 -89.1375 96° East 309 356 27,000  Level Memphis Center
03:02PM 32.7169 -89.0364 92° East 309 356 27,000  Level Memphis Center
03:03PM 32.7117 -88.9350 94° East 309 356 27,000 -180 Level Memphis Center
03:04PM 32.7064 -88.8317 93° East 309 356 26,700 -300 Descending Memphis Center
03:05PM 32.7008 -88.7256 94° East 309 356 26,400 -240 Descending Memphis Center
03:06PM 32.6972 -88.6194 92° East 309 356 26,300 -180 Descending Memphis Center
03:07PM 32.6917 -88.5108 93° East 315 362 26,100 -300 Descending Memphis Center
03:09PM 32.6725 -88.2486 95° East 316 364 25,300 -360 Descending Atlanta Center
03:10PM 32.6636 -88.1394 95° East 327 376 25,000 -180 Descending Atlanta Center
03:11PM 32.6567 -88.0331 94° East 327 376 25,000  Level Atlanta Center
03:12PM 32.6478 -87.9217 95° East 333 383 25,000  Level Atlanta Center
03:13PM 32.6447 -87.8181 92° East 327 376 25,000 -180 Level Atlanta Center
03:14PM 32.6394 -87.7117 93° East 321 369 24,700 -420 Descending Atlanta Center
03:15PM 32.6364 -87.6056 92° East 321 369 24,200 -660 Descending Atlanta Center
03:16PM 32.6311 -87.4942 93° East 326 375 23,400 -1,260 Descending Atlanta Center
03:17PM 32.6242 -87.3756 94° East 338 389 21,700 -1,500 Descending Atlanta Center
03:18PM 32.6189 -87.2594 93° East 350 403 20,400 -1,380 Descending Atlanta Center
03:19PM 32.6133 -87.1458 93° East 350 403 19,000 -1,500 Descending Atlanta Center
03:20PM 32.6078 -87.0297 93° East 350 403 17,400 -1,680 Descending Atlanta Center
03:21PM 32.6003 -86.9161 94° East 350 403 15,700 -1,620 Descending Atlanta Center
03:22PM 32.5922 -86.8025 95° East 350 403 14,200 -1,620 Descending Atlanta Center
03:23PM 32.5822 -86.6936 96° East 339 390 12,500 -1,860 Descending Atlanta Center
03:24PM 32.5739 -86.5900 95° East 332 382 10,500 -1,980 Descending Atlanta Center
03:25PM 32.5617 -86.4811 98° East 332 382 8,600 -1,500 Descending Atlanta Center
03:26PM 32.5531 -86.3825 96° East 327 376 7,500 -1,020 Descending Atlanta Center
03:27PM 32.5403 -86.2858 99° East 307 353 6,600 -900 Descending Atlanta Center
03:29PM 32.5353 -86.1874 93° East  Level FlightAware Approximate
03:36PM 32.5149 -85.8762 103° East  Level Estimated
03:37PM 32.5149 -85.8762 103° East  Level Estimated
03:38PM 32.5149 -85.8762 103° East  Level Estimated
03:39PM 32.5149 -85.8762 103° East  Level Estimated
03:40PM 32.5149 -85.8762 103° East  Level Estimated
03:41PM 32.5149 -85.8762 103° East  Level Estimated
03:42PM 32.5149 -85.8762 103° East  Level Estimated
03:43PM 32.5149 -85.8762 103° East  Level Estimated